Time;durP1;ratioP1;P1;durP2;ratioP2;P2;SDS_P1;SDS_P2;PMS_P1;PMS_P2;Temp;Humidity;BMP_temperature;BMP_pressure;BME280_temperature;BME280_humidity;BME280_pressure;Samples;Min_cycle;Max_cycle;Signal;HPM_P1;HPM_P2
2022/09/14 00:01:38;;;;;;;4.82;4.05;;;;;;;25.43;54.41;100722.47;5092656;28;20522;-73
2022/09/14 00:04:12;;;;;;;4.80;3.70;;;;;;;25.42;54.40;100718.09;5091710;28;20059;-73
2022/09/14 00:06:40;;;;;;;5.38;3.92;;;;;;;25.43;54.45;100717.06;5093627;28;20044;-73
2022/09/14 00:09:14;;;;;;;5.25;3.88;;;;;;;25.43;54.35;100708.94;5092703;28;20040;-73
2022/09/14 00:11:41;;;;;;;5.72;3.65;;;;;;;25.43;54.49;100706.22;5093175;28;20048;-73
2022/09/14 00:14:08;;;;;;;4.70;3.78;;;;;;;25.44;54.43;100702.47;5088061;28;20036;-73
2022/09/14 00:16:38;;;;;;;5.18;3.88;;;;;;;25.44;54.52;100713.31;5071896;28;20033;-73
2022/09/14 00:19:17;;;;;;;7.38;4.40;;;;;;;25.44;54.39;100707.91;5072435;28;20048;-73
2022/09/14 00:21:45;;;;;;;5.50;3.75;;;;;;;25.44;54.61;100704.34;5072898;28;20071;-73
2022/09/14 00:24:12;;;;;;;4.43;4.03;;;;;;;25.45;54.48;100700.66;5072407;28;20045;-73
2022/09/14 00:26:39;;;;;;;5.57;3.95;;;;;;;25.45;54.49;100687.09;5076007;28;20040;-73
2022/09/14 00:29:07;;;;;;;7.55;4.20;;;;;;;25.45;54.32;100690.66;5092338;28;20518;-73
2022/09/14 00:31:36;;;;;;;6.35;4.22;;;;;;;25.45;54.41;100697.94;5096547;28;20044;-73
2022/09/14 00:34:06;;;;;;;5.82;3.88;;;;;;;25.44;54.39;100697.06;5095914;28;20055;-73
2022/09/14 00:36:39;;;;;;;5.43;3.83;;;;;;;25.46;54.44;100703.16;5096189;28;20045;-73
2022/09/14 00:39:07;;;;;;;7.00;4.00;;;;;;;25.45;54.41;100708.78;5096247;28;20050;-73
2022/09/14 00:41:38;;;;;;;4.82;4.13;;;;;;;25.47;54.63;100709.44;5095939;28;20062;-73
2022/09/14 00:44:26;;;;;;;4.95;3.50;;;;;;;25.47;54.64;100718.41;5096228;28;20044;-73
2022/09/14 00:47:01;;;;;;;4.43;3.78;;;;;;;25.46;54.67;100708.59;5096023;28;20055;-73
2022/09/14 00:49:36;;;;;;;5.93;4.10;;;;;;;25.46;54.60;100713.16;5095871;28;20044;-73
2022/09/14 00:52:09;;;;;;;5.25;3.63;;;;;;;25.45;54.63;100704.19;5095794;28;20044;-73
2022/09/14 00:54:38;;;;;;;;;;;;;;;25.46;54.76;100711.28;5096486;28;20044;-73
2022/09/14 00:57:06;;;;;;;5.05;3.60;;;;;;;25.47;54.60;100704.84;5095715;28;20013;-73
2022/09/14 00:59:37;;;;;;;6.55;4.03;;;;;;;25.46;54.67;100705.88;5095672;28;20040;-73
2022/09/14 01:02:08;;;;;;;4.38;3.95;;;;;;;25.46;54.76;100711.28;5079080;28;20041;-73
2022/09/14 01:04:36;;;;;;;6.28;3.95;;;;;;;25.46;54.61;100705.88;5075355;28;20068;-73
2022/09/14 01:07:41;;;;;;;5.78;3.85;;;;;;;25.45;54.52;100706.91;5074380;28;20048;-73
2022/09/14 01:10:27;;;;;;;4.38;3.97;;;;;;;25.46;54.71;100699.63;5075104;28;20048;-73
2022/09/14 01:13:21;;;;;;;7.53;4.35;;;;;;;25.45;54.59;100696.06;5081480;28;20471;-73
2022/09/14 01:16:29;;;;;;;4.93;3.97;;;;;;;25.45;54.60;100693.34;5084395;28;20415;-73
2022/09/14 01:19:04;;;;;;;6.70;3.75;;;;;;;25.45;54.69;100698.78;5094578;28;20059;-73
2022/09/14 01:21:34;;;;;;;6.72;4.40;;;;;;;25.46;54.63;100692.31;5095054;28;20044;-73
2022/09/14 01:24:17;;;;;;;4.45;3.83;;;;;;;25.45;54.59;100690.66;5095724;28;20059;-73
2022/09/14 01:27:00;;;;;;;5.80;4.20;;;;;;;25.45;54.67;100677.09;5095113;28;20055;-73
2022/09/14 01:29:38;;;;;;;5.57;3.90;;;;;;;25.47;54.66;100675.03;5095231;28;20037;-73
2022/09/14 01:32:33;;;;;;;5.03;4.07;;;;;;;25.47;54.63;100679.63;5095333;28;20506;-72
2022/09/14 01:35:11;;;;;;;7.32;4.20;;;;;;;25.46;54.85;100672.50;5095503;28;20040;-72
2022/09/14 01:37:55;;;;;;;5.13;4.20;;;;;;;25.46;54.74;100664.38;5093683;28;20043;-72
2022/09/14 01:40:28;;;;;;;4.63;3.80;;;;;;;25.46;54.64;100670.63;5095181;28;20058;-72
2022/09/14 01:43:05;;;;;;;6.03;4.25;;;;;;;25.47;54.63;100664.19;5095184;28;20043;-73
2022/09/14 01:45:33;;;;;;;5.93;4.28;;;;;;;25.46;54.73;100665.22;5095213;28;20411;-73
2022/09/14 01:48:06;;;;;;;4.88;3.92;;;;;;;25.47;54.54;100669.63;5094619;28;20048;-72
2022/09/14 01:50:40;;;;;;;5.32;4.00;;;;;;;25.47;54.80;100669.63;5094700;28;20055;-73
2022/09/14 01:53:14;;;;;;;4.30;3.90;;;;;;;25.47;54.68;100666.91;5094890;28;20506;-74
2022/09/14 01:56:14;;;;;;;4.68;4.00;;;;;;;25.47;54.71;100664.19;5094651;28;20391;-73
2022/09/14 01:58:56;;;;;;;4.60;3.90;;;;;;;25.48;54.77;100662.31;5092271;28;20051;-73
2022/09/14 02:01:33;;;;;;;4.63;3.70;;;;;;;25.48;54.71;100654.19;5093049;28;20052;-73
2022/09/14 02:04:05;;;;;;;11.55;4.47;;;;;;;25.47;54.83;100657.94;5092737;28;20496;-73
2022/09/14 02:06:43;;;;;;;4.22;3.80;;;;;;;25.48;54.82;100644.22;5092155;28;20063;-73
2022/09/14 02:09:15;;;;;;;5.85;4.22;;;;;;;25.48;54.86;100629.81;5075674;28;20438;-74
2022/09/14 02:11:43;;;;;;;5.03;4.40;;;;;;;25.47;54.89;100626.25;5092712;28;20052;-73
2022/09/14 02:14:10;;;;;;;4.65;4.25;;;;;;;25.48;54.98;100632.50;5075298;28;20044;-73
2022/09/14 02:16:42;;;;;;;6.47;4.57;;;;;;;25.48;54.82;100640.63;5082658;28;20060;-74
2022/09/14 02:19:09;;;;;;;6.10;4.22;;;;;;;25.48;55.03;100640.63;5071756;28;20048;-74
2022/09/14 02:21:39;;;;;;;8.13;4.00;;;;;;;25.48;55.05;100641.50;5071674;28;20052;-73
2022/09/14 02:24:08;;;;;;;5.25;4.75;;;;;;;25.48;54.97;100637.94;5071513;28;20424;-73
2022/09/14 02:26:36;;;;;;;5.25;4.07;;;;;;;25.49;54.83;100653.19;5072100;28;20044;-74
2022/09/14 02:29:04;;;;;;;4.95;3.95;;;;;;;25.48;55.00;100651.47;5072009;28;20083;-73
2022/09/14 02:32:03;;;;;;;5.82;4.72;;;;;;;25.48;54.87;100637.94;5071950;28;20052;-73
2022/09/14 02:34:30;;;;;;;5.85;4.60;;;;;;;25.47;54.83;100625.41;4992408;28;20058;-73
2022/09/14 02:37:29;;;;;;;5.22;4.38;;;;;;;25.46;54.75;100621.84;5011830;28;20069;-73
2022/09/14 02:40:22;;;;;;;7.55;4.35;;;;;;;25.48;54.88;100624.38;5009056;28;20068;-73
2022/09/14 02:43:11;;;;;;;4.53;4.05;;;;;;;25.47;54.80;100631.66;5011948;28;20049;-73
2022/09/14 02:45:53;;;;;;;10.52;4.72;;;;;;;25.47;54.74;100630.81;5011898;28;20061;-73
2022/09/14 02:48:39;;;;;;;5.78;3.72;;;;;;;25.47;54.84;100628.97;5011411;28;20053;-73
2022/09/14 02:51:19;;;;;;;4.97;4.47;;;;;;;25.48;54.87;100632.50;5012244;28;20079;-73
2022/09/14 02:54:16;;;;;;;5.22;4.55;;;;;;;25.47;54.87;100626.25;5012129;28;20381;-73
2022/09/14 02:56:44;;;;;;;5.35;3.97;;;;;;;25.47;54.75;100631.66;5011597;28;20053;-73
2022/09/14 02:59:12;;;;;;;5.13;4.53;;;;;;;25.46;54.85;100630.00;5011618;28;20533;-74
2022/09/14 03:01:39;;;;;;;4.95;4.47;;;;;;;25.47;54.73;100626.25;5011888;28;20054;-73
2022/09/14 03:04:06;;;;;;;5.90;4.25;;;;;;;25.47;54.85;100626.25;4995153;28;20402;-73
2022/09/14 03:06:34;;;;;;;5.05;4.55;;;;;;;25.47;54.70;100628.97;5011431;28;20050;-73
2022/09/14 03:09:02;;;;;;;6.53;4.70;;;;;;;25.47;54.73;100630.81;5011790;28;20414;-73
2022/09/14 03:11:29;;;;;;;5.57;4.55;;;;;;;25.48;54.83;100632.50;5042833;28;20052;-73
2022/09/14 03:13:57;;;;;;;5.38;4.57;;;;;;;25.47;54.86;100628.97;5078681;28;20044;-73
2022/09/14 03:16:24;;;;;;;5.68;4.90;;;;;;;25.48;54.93;100629.81;5093290;28;20047;-73
2022/09/14 03:18:52;;;;;;;5.78;4.90;;;;;;;25.47;54.88;100628.97;5073477;28;20040;-73
2022/09/14 03:21:19;;;;;;;6.03;5.10;;;;;;;25.46;54.73;100630.00;5072937;28;20044;-73
2022/09/14 03:23:50;;;;;;;4.63;3.92;;;;;;;25.46;54.75;100635.41;5073468;28;20041;-73
2022/09/14 03:26:22;;;;;;;7.55;5.00;;;;;;;25.46;54.71;100629.16;5072924;28;20059;-73
2022/09/14 03:28:51;;;;;;;5.13;4.50;;;;;;;25.47;54.69;100630.81;5072922;28;20048;-73
2022/09/14 03:31:18;;;;;;;6.60;4.55;;;;;;;25.47;54.80;100626.25;5072824;28;20051;-73
2022/09/14 03:33:46;;;;;;;6.20;4.70;;;;;;;25.46;54.68;100631.84;5072920;28;20044;-73
2022/09/14 03:36:16;;;;;;;5.07;4.57;;;;;;;25.47;54.73;100638.97;5072780;28;20040;-73
2022/09/14 03:38:45;;;;;;;5.70;4.38;;;;;;;25.47;54.57;100628.13;5072774;28;20041;-73
2022/09/14 03:41:13;;;;;;;6.72;5.03;;;;;;;25.47;54.71;100614.56;5072750;28;20044;-73
2022/09/14 03:43:41;;;;;;;7.28;4.75;;;;;;;25.46;54.54;100611.00;5072993;28;20044;-73
2022/09/14 03:46:17;;;;;;;7.35;4.82;;;;;;;25.46;54.45;100613.72;5072777;28;20044;-74
2022/09/14 03:48:45;;;;;;;5.10;4.60;;;;;;;25.47;54.55;100617.28;5073370;28;20048;-73
2022/09/14 03:51:13;;;;;;;5.45;4.18;;;;;;;25.45;54.46;100612.03;5071443;28;20048;-73
2022/09/14 03:53:41;;;;;;;5.32;4.43;;;;;;;25.44;54.43;100615.75;5072659;28;20381;-73
2022/09/14 03:56:11;;;;;;;7.30;4.50;;;;;;;25.45;54.47;100625.59;5071883;28;20052;-73
2022/09/14 03:58:38;;;;;;;6.53;5.40;;;;;;;25.45;54.68;100627.47;5075689;28;20044;-73
2022/09/14 04:01:08;;;;;;;6.13;4.38;;;;;;;25.45;54.52;100620.19;5095521;28;20411;-73
2022/09/14 04:03:36;;;;;;;5.50;4.45;;;;;;;25.45;54.47;100624.75;5097233;28;20040;-73
2022/09/14 04:06:04;;;;;;;6.00;4.10;;;;;;;25.45;54.48;100625.59;5096640;28;20044;-73
2022/09/14 04:08:34;;;;;;;6.32;4.20;;;;;;;25.46;54.68;100631.84;5096950;28;20040;-73
2022/09/14 04:11:14;;;;;;;5.97;5.05;;;;;;;25.47;54.63;100633.53;5096801;28;20047;-73
2022/09/14 04:13:43;;;;;;;7.40;5.20;;;;;;;25.44;54.63;100632.00;5096654;28;20048;-73
2022/09/14 04:16:11;;;;;;;6.85;4.45;;;;;;;25.46;54.58;100635.41;5096491;28;20047;-73
2022/09/14 04:18:38;;;;;;;5.95;4.53;;;;;;;25.44;54.32;100633.88;5086884;28;20357;-73
2022/09/14 04:21:09;;;;;;;4.97;4.47;;;;;;;25.43;54.10;100624.91;5076052;28;20045;-73
2022/09/14 04:23:36;;;;;;;6.65;5.35;;;;;;;25.44;53.92;100629.31;5076205;28;20036;-73
2022/09/14 04:26:26;;;;;;;7.30;4.65;;;;;;;25.43;53.93;100626.78;5075992;28;20047;-71
2022/09/14 04:28:57;;;;;;;5.43;4.70;;;;;;;25.43;53.94;100618.66;5076906;28;20045;-73
2022/09/14 04:31:25;;;;;;;6.65;4.65;;;;;;;25.43;53.97;100624.91;5075760;28;20048;-74
2022/09/14 04:33:55;;;;;;;7.07;4.63;;;;;;;25.43;53.77;100629.50;5075666;28;20492;-73
2022/09/14 04:36:27;;;;;;;5.10;4.57;;;;;;;25.41;53.83;100635.09;5075806;28;20047;-73
2022/09/14 04:38:58;;;;;;;7.10;4.75;;;;;;;25.42;53.73;100634.06;5076643;28;20044;-73
2022/09/14 04:41:27;;;;;;;5.65;5.00;;;;;;;25.40;53.75;100631.56;5075915;28;20048;-73
2022/09/14 04:43:55;;;;;;;8.85;5.28;;;;;;;25.41;53.59;100632.38;5075720;28;20067;-73
2022/09/14 04:46:26;;;;;;;7.30;5.07;;;;;;;25.39;53.63;100627.13;5075813;28;20051;-73
2022/09/14 04:48:53;;;;;;;7.72;5.05;;;;;;;25.39;53.58;100634.41;5075672;28;20053;-73
2022/09/14 04:51:23;;;;;;;7.40;4.75;;;;;;;25.39;53.43;100642.53;5075644;28;20055;-73
2022/09/14 04:53:53;;;;;;;5.13;4.30;;;;;;;25.38;53.61;100643.56;5075853;28;20049;-73
2022/09/14 04:56:21;;;;;;;6.80;4.68;;;;;;;25.37;53.48;100648.16;5076032;28;20040;-73
2022/09/14 04:58:52;;;;;;;5.65;4.15;;;;;;;25.38;53.59;100640.88;5075553;28;20119;-73
2022/09/14 05:01:22;;;;;;;5.60;4.47;;;;;;;25.38;53.55;100638.16;5075430;28;20049;-73
2022/09/14 05:03:51;;;;;;;7.80;4.85;;;;;;;25.38;53.59;100635.44;5075632;28;20037;-73
2022/09/14 05:06:22;;;;;;;5.00;4.47;;;;;;;25.37;53.82;100636.47;5075240;28;20484;-73
2022/09/14 05:08:50;;;;;;;5.75;4.43;;;;;;;25.38;53.82;100641.72;5075185;28;20515;-73
2022/09/14 05:11:24;;;;;;;5.00;4.47;;;;;;;25.38;53.78;100630.03;5075326;28;20047;-73
2022/09/14 05:13:51;;;;;;;6.05;4.72;;;;;;;25.36;53.81;100627.50;5075377;28;20044;-73
2022/09/14 05:16:27;;;;;;;7.35;4.22;;;;;;;25.36;53.69;100627.50;5093309;28;20047;-73
2022/09/14 05:19:02;;;;;;;5.68;4.72;;;;;;;25.36;53.55;100613.97;5092470;28;20052;-73
2022/09/14 05:21:31;;;;;;;6.32;4.82;;;;;;;25.37;53.80;100612.09;5092812;28;20044;-73
2022/09/14 05:24:04;;;;;;;6.50;5.03;;;;;;;25.37;53.42;100603.97;5095389;28;20036;-73
2022/09/14 05:26:31;;;;;;;6.70;4.95;;;;;;;25.36;53.50;100591.41;5095397;28;20051;-73
2022/09/14 05:29:00;;;;;;;4.80;4.40;;;;;;;25.35;53.50;100590.56;5095025;28;20044;-73
2022/09/14 05:31:29;;;;;;;7.00;4.63;;;;;;;25.37;53.47;100576.84;5095543;28;20067;-73
2022/09/14 05:33:58;;;;;;;5.30;4.80;;;;;;;25.35;53.55;100581.59;5094949;28;20059;-73
2022/09/14 05:36:25;;;;;;;5.32;4.82;;;;;;;25.35;53.44;100590.56;5095501;28;20506;-73
2022/09/14 05:38:52;;;;;;;6.68;5.15;;;;;;;25.35;53.31;100598.69;5094824;28;20048;-73
2022/09/14 05:41:20;;;;;;;6.30;5.15;;;;;;;25.36;53.41;100604.94;5095326;28;20055;-73
2022/09/14 05:43:47;;;;;;;7.32;5.47;;;;;;;25.35;53.44;100620.38;5094505;28;20479;-73
2022/09/14 05:46:19;;;;;;;6.78;4.72;;;;;;;25.36;53.35;100623.94;5094710;28;20514;-73
2022/09/14 05:48:50;;;;;;;6.60;5.17;;;;;;;25.34;53.29;100610.56;5095119;28;20407;-73
2022/09/14 05:51:20;;;;;;;8.25;5.60;;;;;;;25.35;53.13;100616.81;5094938;28;20048;-73
2022/09/14 05:53:56;;;;;;;9.32;5.82;;;;;;;25.34;53.65;100618.69;5094654;28;20411;-73
2022/09/14 05:56:26;;;;;;;6.20;4.43;;;;;;;25.34;53.60;100615.97;5094511;28;20048;-73
2022/09/14 05:58:53;;;;;;;5.38;4.57;;;;;;;25.34;53.75;100613.28;5094966;28;20048;-73
2022/09/14 06:01:24;;;;;;;6.50;4.47;;;;;;;25.35;53.74;100606.81;5094765;28;20047;-73
2022/09/14 06:03:53;;;;;;;6.72;5.03;;;;;;;25.36;53.80;100608.53;5094682;28;20055;-73
2022/09/14 06:06:21;;;;;;;5.93;4.68;;;;;;;25.36;54.05;100602.25;5094307;28;20048;-73
2022/09/14 06:08:51;;;;;;;6.25;5.18;;;;;;;25.35;54.12;100587.84;5094693;28;20051;-73
2022/09/14 06:11:21;;;;;;;6.97;5.25;;;;;;;25.36;54.05;100591.41;5094164;28;20051;-73
2022/09/14 06:13:48;;;;;;;7.32;4.90;;;;;;;25.37;53.84;100585.00;5094308;28;20495;-73
2022/09/14 06:16:18;;;;;;;6.15;5.03;;;;;;;25.36;53.69;100583.28;5094476;28;20051;-73
2022/09/14 06:18:47;;;;;;;5.03;4.30;;;;;;;25.36;53.92;100577.84;5094064;28;20047;-73
2022/09/14 06:21:18;;;;;;;7.63;4.35;;;;;;;25.38;53.79;100578.53;5079409;28;20461;-73
2022/09/14 06:23:46;;;;;;;7.53;5.32;;;;;;;25.37;53.89;100587.69;5091366;28;20048;-73
2022/09/14 06:26:15;;;;;;;6.47;4.80;;;;;;;25.38;54.28;100590.22;5093827;28;20043;-73
2022/09/14 06:28:42;;;;;;;8.38;4.47;;;;;;;25.38;54.38;100587.50;5093937;28;20486;-73
2022/09/14 06:31:12;;;;;;;4.75;3.58;;;;;;;25.39;54.50;100591.91;5094408;28;20055;-73
2022/09/14 06:33:44;;;;;;;5.78;4.20;;;;;;;25.39;54.49;100591.91;5093716;28;20052;-73
2022/09/14 06:36:15;;;;;;;10.68;3.65;;;;;;;25.43;54.34;100602.41;5094002;28;20044;-73
2022/09/14 06:38:43;;;;;;;6.82;4.70;;;;;;;25.41;54.33;100599.88;5094180;28;20048;-73
2022/09/14 06:41:13;;;;;;;6.65;4.18;;;;;;;25.42;54.33;100612.38;5092692;28;20052;-73
2022/09/14 06:43:41;;;;;;;6.60;4.43;;;;;;;25.43;54.42;100622.19;5093933;28;20044;-73
2022/09/14 06:46:13;;;;;;;8.00;4.55;;;;;;;25.43;54.34;100624.91;5093780;28;20051;-73
2022/09/14 06:48:47;;;;;;;6.93;4.53;;;;;;;25.44;54.30;100626.59;5094189;28;20051;-73
2022/09/14 06:51:42;;;;;;;6.35;4.75;;;;;;;25.45;54.30;100625.59;5093670;28;20055;-73
2022/09/14 06:54:11;;;;;;;6.15;4.68;;;;;;;25.45;54.48;100616.63;5093609;28;20040;-71
2022/09/14 06:56:40;;;;;;;7.35;3.92;;;;;;;25.47;54.48;100614.56;5093701;28;20510;-71
2022/09/14 06:59:10;;;;;;;6.93;4.50;;;;;;;25.46;54.59;100615.59;5093426;28;20487;-71
2022/09/14 07:01:38;;;;;;;6.13;4.18;;;;;;;25.47;54.54;100619.97;5080473;28;20048;-71
2022/09/14 07:04:06;;;;;;;5.38;4.60;;;;;;;25.49;54.67;100615.25;5072981;28;20040;-71
2022/09/14 07:06:45;;;;;;;8.15;4.68;;;;;;;25.49;54.64;100626.94;5073213;28;20041;-71
2022/09/14 07:09:13;;;;;;;7.05;3.88;;;;;;;25.49;54.45;100639.63;5072793;28;20048;-71
2022/09/14 07:11:41;;;;;;;7.63;4.57;;;;;;;25.50;54.41;100649.44;5072980;28;20047;-70
2022/09/14 07:14:08;;;;;;;5.45;4.22;;;;;;;25.50;54.53;100655.72;5073539;28;20048;-73
2022/09/14 07:16:37;;;;;;;7.18;4.65;;;;;;;25.51;54.53;100657.41;5084598;28;20044;-70
2022/09/14 07:19:08;;;;;;;8.20;4.28;;;;;;;25.51;54.45;100665.53;5093478;28;20044;-70
2022/09/14 07:21:36;;;;;;;10.80;4.22;;;;;;;25.52;54.46;100679.91;5084700;28;20044;-72
2022/09/14 07:24:04;;;;;;;7.35;4.20;;;;;;;25.52;54.55;100675.38;5072413;28;20048;-70
2022/09/14 07:26:38;;;;;;;5.35;3.75;;;;;;;25.52;54.53;100672.66;5073552;28;20381;-71
2022/09/14 07:29:07;;;;;;;6.07;3.97;;;;;;;25.52;54.51;100688.94;5072974;28;20044;-71
2022/09/14 07:31:38;;;;;;;7.70;4.07;;;;;;;25.53;54.66;100700.59;5072808;28;20043;-70
2022/09/14 07:34:06;;;;;;;6.00;3.72;;;;;;;25.54;54.58;100713.13;5071380;28;20063;-71
2022/09/14 07:36:34;;;;;;;10.02;4.57;;;;;;;25.54;54.56;100726.69;5077004;28;20392;-71
2022/09/14 07:39:06;;;;;;;6.05;4.03;;;;;;;25.53;54.01;100742.09;5076775;28;20044;-71
2022/09/14 07:41:34;;;;;;;5.05;3.72;;;;;;;25.54;53.72;100759.22;5077223;28;20052;-70
2022/09/14 07:44:06;;;;;;;5.32;3.53;;;;;;;25.53;53.61;100771.94;5076986;28;20513;-71
2022/09/14 07:46:39;;;;;;;6.10;4.10;;;;;;;25.53;54.04;100771.94;5076805;28;20044;-71
2022/09/14 07:49:08;;;;;;;6.15;3.55;;;;;;;25.53;53.32;100777.34;5076885;28;20045;-71
2022/09/14 07:51:36;;;;;;;6.53;3.65;;;;;;;25.53;52.33;100781.94;5075855;28;20049;-70
2022/09/14 07:54:05;;;;;;;8.50;3.92;;;;;;;25.51;53.02;100773.13;5076485;28;20051;-70
2022/09/14 07:56:33;;;;;;;7.47;3.60;;;;;;;25.51;52.88;100779.38;5075973;28;20059;-71
2022/09/14 07:59:01;;;;;;;5.75;3.03;;;;;;;25.52;52.82;100780.22;5076414;28;20056;-72
2022/09/14 08:01:48;;;;;;;4.05;2.72;;;;;;;25.52;53.27;100767.53;5077182;28;20047;-72
2022/09/14 08:04:16;;;;;;;5.03;3.03;;;;;;;25.53;53.17;100766.50;5084017;28;20048;-73
2022/09/14 08:06:43;;;;;;;9.05;3.95;;;;;;;25.53;51.63;100773.78;5096420;28;20106;-72
2022/09/14 08:09:10;;;;;;;8.30;3.65;;;;;;;25.51;51.26;100773.94;5097094;28;20052;-73
2022/09/14 08:11:38;;;;;;;6.93;3.85;;;;;;;25.49;51.28;100770.59;5097492;28;20044;-73
2022/09/14 08:14:09;;;;;;;4.97;3.58;;;;;;;25.50;51.37;100768.72;5096753;28;20056;-73
2022/09/14 08:16:37;;;;;;;6.80;4.03;;;;;;;25.47;51.06;100774.47;5103371;28;20047;-73
2022/09/14 08:19:11;;;;;;;7.53;4.20;;;;;;;25.44;51.01;100772.94;5096753;28;20474;-73
2022/09/14 08:21:38;;;;;;;6.53;4.22;;;;;;;25.44;51.28;100778.38;5102719;28;20056;-73
2022/09/14 08:24:17;;;;;;;9.50;4.35;;;;;;;25.44;51.25;100772.94;5074246;28;20048;-73
2022/09/14 08:26:46;;;;;;;8.60;4.10;;;;;;;25.44;51.33;100781.06;5082823;28;20055;-73
2022/09/14 08:29:15;;;;;;;5.40;3.47;;;;;;;25.43;51.61;100779.41;5075882;28;20071;-71
2022/09/14 08:31:44;;;;;;;6.22;4.00;;;;;;;25.42;51.86;100776.88;5075716;28;20056;-73
2022/09/14 08:34:13;;;;;;;6.72;3.38;;;;;;;25.43;52.02;100782.09;5075829;28;20059;-73
2022/09/14 08:36:42;;;;;;;6.15;3.20;;;;;;;25.44;52.00;100783.78;5076360;28;20044;-72
2022/09/14 08:39:12;;;;;;;8.68;4.68;;;;;;;25.44;51.84;100789.22;5076255;28;20044;-73
2022/09/14 08:41:47;;;;;;;7.68;3.80;;;;;;;25.43;51.83;100782.09;5081986;28;20070;-71
2022/09/14 08:44:23;;;;;;;7.18;3.47;;;;;;;25.45;52.21;100773.81;5102881;28;20048;-71
2022/09/14 08:46:54;;;;;;;5.60;3.30;;;;;;;25.45;52.31;100777.38;5101912;28;20047;-72
2022/09/14 08:49:38;;;;;;;4.90;3.08;;;;;;;25.47;52.16;100783.44;5102491;28;20399;-73
2022/09/14 08:52:29;;;;;;;7.13;3.40;;;;;;;25.48;52.21;100779.75;5102421;28;20048;-73
2022/09/14 08:55:00;;;;;;;5.47;3.45;;;;;;;25.50;52.37;100787.69;5095186;28;20487;-73
2022/09/14 08:57:30;;;;;;;4.88;3.20;;;;;;;25.49;52.41;100797.69;5102344;28;20487;-73
2022/09/14 09:00:05;;;;;;;7.55;3.13;;;;;;;25.49;52.43;100800.41;5096067;28;20412;-72
2022/09/14 09:03:07;;;;;;;8.02;3.55;;;;;;;25.48;51.92;100823.13;5082437;28;20051;-73
2022/09/14 09:06:08;;;;;;;4.38;3.00;;;;;;;25.48;51.92;100827.66;5074998;28;20044;-73
2022/09/14 09:08:56;;;;;;;6.18;3.30;;;;;;;25.46;51.96;100840.56;5082072;28;20056;-73
2022/09/14 09:11:36;;;;;;;7.23;3.27;;;;;;;25.47;52.21;100839.53;5080905;28;20045;-73
2022/09/14 09:14:16;;;;;;;5.18;3.45;;;;;;;25.46;52.26;100852.25;5082141;28;20725;-73
2022/09/14 09:16:49;;;;;;;5.55;3.45;;;;;;;25.47;52.17;100853.94;5087411;28;20357;-73
2022/09/14 09:19:33;;;;;;;7.20;3.75;;;;;;;25.47;52.49;100869.34;5102225;28;20040;-73
2022/09/14 09:22:03;;;;;;;8.60;3.65;;;;;;;25.47;52.45;100885.59;5102243;28;20044;-73
2022/09/14 09:24:38;;;;;;;5.63;3.05;;;;;;;25.47;52.69;100886.44;5079912;28;20346;-73
2022/09/14 09:27:16;;;;;;;7.60;3.17;;;;;;;25.48;52.70;100876.44;5081879;28;20040;-73
2022/09/14 09:29:43;;;;;;;5.65;3.25;;;;;;;25.48;52.89;100880.03;5081601;28;20049;-73
2022/09/14 09:32:29;;;;;;;7.15;2.92;;;;;;;25.48;52.86;100874.63;5075269;28;20412;-73
2022/09/14 09:35:21;;;;;;;6.28;2.90;;;;;;;25.49;52.93;100868.16;5081872;28;20071;-73
2022/09/14 09:37:56;;;;;;;6.57;3.40;;;;;;;25.50;52.64;100859.00;5072846;28;20056;-73
2022/09/14 09:40:35;;;;;;;4.32;3.20;;;;;;;25.51;52.73;100849.84;5073071;28;20059;-71
2022/09/14 09:43:04;;;;;;;3.53;2.65;;;;;;;25.51;52.70;100843.59;5073676;28;20052;-73
2022/09/14 09:45:49;;;;;;;8.13;2.83;;;;;;;25.52;52.64;100835.31;5074257;28;20542;-73
2022/09/14 09:48:19;;;;;;;4.93;2.67;;;;;;;25.52;52.71;100829.00;5074291;28;20048;-73
2022/09/14 09:51:01;;;;;;;6.35;2.80;;;;;;;25.52;52.43;100819.03;5074471;28;20040;-73
2022/09/14 09:53:29;;;;;;;8.40;2.80;;;;;;;25.53;52.71;100815.31;5074088;28;20511;-73
2022/09/14 09:55:56;;;;;;;5.57;2.83;;;;;;;25.54;52.68;100802.59;5074285;28;20036;-73
2022/09/14 09:58:34;;;;;;;5.85;3.00;;;;;;;25.54;52.63;100800.72;5073641;28;20045;-73
2022/09/14 10:01:02;;;;;;;6.05;3.28;;;;;;;25.55;52.61;100796.97;5076782;28;21190;-73
2022/09/14 10:03:39;;;;;;;4.45;2.50;;;;;;;25.54;52.42;100776.31;5094099;28;20048;-73
2022/09/14 10:06:09;;;;;;;4.40;3.00;;;;;;;25.55;52.59;100756.31;5090672;28;20396;-73
2022/09/14 10:08:43;;;;;;;4.95;2.60;;;;;;;25.56;52.57;100722.78;5073638;28;20107;-73
2022/09/14 10:11:32;;;;;;;3.72;2.40;;;;;;;25.59;52.58;100717.00;5074029;28;20045;-73
2022/09/14 10:14:04;;;;;;;7.28;2.67;;;;;;;25.58;52.57;100690.06;5074048;28;20514;-73
2022/09/14 10:16:39;;;;;;;4.60;2.60;;;;;;;25.60;52.43;100680.75;5074228;28;20399;-73
2022/09/14 10:19:19;;;;;;;6.28;2.60;;;;;;;25.60;52.64;100671.75;5072229;28;20048;-73
2022/09/14 10:22:25;;;;;;;5.28;2.58;;;;;;;25.61;52.64;100660.75;5072482;28;20064;-73
2022/09/14 10:25:00;;;;;;;4.57;2.28;;;;;;;25.61;52.60;100647.19;5072883;28;20573;-73
2022/09/14 10:27:47;;;;;;;6.68;2.97;;;;;;;25.63;52.55;100626.16;5091736;28;20415;-73
2022/09/14 10:30:23;;;;;;;4.15;2.50;;;;;;;25.62;52.94;100619.06;5093781;28;20055;-73
2022/09/14 10:33:05;;;;;;;4.63;2.65;;;;;;;25.64;52.89;100587.19;5092341;28;20181;-73
2022/09/14 10:35:49;;;;;;;5.13;2.50;;;;;;;25.64;52.94;100603.47;5093482;28;20052;-73
2022/09/14 10:38:27;;;;;;;3.72;2.53;;;;;;;25.64;53.02;100586.34;5094123;28;20051;-73
2022/09/14 10:41:02;;;;;;;6.63;2.72;;;;;;;25.65;53.20;100593.47;5093630;28;20052;-73
2022/09/14 10:43:58;;;;;;;4.60;2.83;;;;;;;25.64;53.14;100603.47;5093546;28;20052;-73
2022/09/14 10:46:33;;;;;;;4.25;2.45;;;;;;;25.64;53.10;100613.44;5092553;28;20051;-73
2022/09/14 10:49:30;;;;;;;7.45;2.70;;;;;;;25.66;53.31;100624.97;5093980;28;20044;-74
2022/09/14 10:52:15;;;;;;;5.95;2.53;;;;;;;25.66;53.39;100627.69;5093440;28;20044;-73
2022/09/14 10:55:02;;;;;;;4.25;2.67;;;;;;;25.67;53.09;100615.81;5093487;28;20052;-74
2022/09/14 10:58:09;;;;;;;4.90;2.75;;;;;;;25.67;53.25;100620.38;5093422;28;20059;-73
2022/09/14 11:01:21;;;;;;;5.28;3.13;;;;;;;25.68;53.08;100609.34;5091184;28;20056;-73
2022/09/14 11:03:54;;;;;;;10.07;2.90;;;;;;;25.68;53.19;100608.50;5091558;28;20060;-73
2022/09/14 11:06:28;;;;;;;4.82;2.55;;;;;;;25.68;53.56;100612.06;5091763;28;20059;-73
2022/09/14 11:09:00;;;;;;;6.78;2.75;;;;;;;25.69;53.20;100631.91;5091164;28;20056;-73
2022/09/14 11:12:07;;;;;;;5.80;2.70;;;;;;;25.67;53.49;100626.66;5091093;28;20064;-73
2022/09/14 11:15:13;;;;;;;4.28;2.65;;;;;;;25.67;53.52;100629.34;5091721;28;20291;-73
2022/09/14 11:18:00;;;;;;;5.05;2.60;;;;;;;25.68;53.53;100622.06;5091003;28;20048;-74
2022/09/14 11:20:42;;;;;;;3.67;2.58;;;;;;;25.67;53.80;100610.38;5091386;28;20048;-73
2022/09/14 11:23:23;;;;;;;4.72;2.60;;;;;;;25.68;53.81;100598.50;5091267;28;20063;-74
2022/09/14 11:26:06;;;;;;;5.68;2.60;;;;;;;25.70;53.99;100598.34;5080297;28;20064;-73
2022/09/14 11:28:42;;;;;;;8.18;2.90;;;;;;;25.70;53.68;100596.47;5070997;28;20452;-73
2022/09/14 11:31:22;;;;;;;4.05;2.58;;;;;;;25.71;53.62;100583.75;5070792;28;20060;-73
2022/09/14 11:34:16;;;;;;;4.85;2.80;;;;;;;25.71;53.56;100565.63;5070932;28;20060;-73
2022/09/14 11:36:49;;;;;;;5.88;2.70;;;;;;;25.71;53.52;100557.47;5072767;28;20468;-73
2022/09/14 11:39:34;;;;;;;5.43;3.13;;;;;;;25.74;53.78;100537.31;5072906;28;20052;-73
2022/09/14 11:42:07;;;;;;;5.22;3.03;;;;;;;25.73;53.72;100522.91;5072936;28;20074;-73
2022/09/14 11:44:38;;;;;;;4.45;2.88;;;;;;;25.75;53.69;100517.31;5072589;28;20056;-73
2022/09/14 11:47:11;;;;;;;6.95;2.95;;;;;;;25.77;53.66;100507.13;5072341;28;20045;-75
2022/09/14 11:49:45;;;;;;;4.35;2.85;;;;;;;25.78;53.45;100492.56;5072940;28;20491;-73
2022/09/14 11:52:19;;;;;;;6.20;3.30;;;;;;;25.80;53.57;100485.06;5072769;28;20044;-73
2022/09/14 11:54:48;;;;;;;7.40;3.22;;;;;;;25.82;53.40;100467.59;5072732;28;20056;-73
2022/09/14 11:57:35;;;;;;;5.95;3.20;;;;;;;25.83;53.25;100457.59;5073357;28;20044;-74